sensor_id;sensor_type;location;lat;lon;timestamp;pressure;altitude;pressure_sealevel;temperature;humidity
6389;BME280;3227;42.654;23.360;2024-03-06T00:00:09;94178.84;;;8.04;91.58
6389;BME280;3227;42.654;23.360;2024-03-06T00:02:36;94172.91;;;8.02;92.28
6389;BME280;3227;42.654;23.360;2024-03-06T00:05:05;94174.63;;;8.06;92.00
6389;BME280;3227;42.654;23.360;2024-03-06T00:07:33;94183.94;;;8.02;92.08
6389;BME280;3227;42.654;23.360;2024-03-06T00:09:59;94145.53;;;7.63;92.70
6389;BME280;3227;42.654;23.360;2024-03-06T00:12:26;94178.84;;;8.01;92.31
6389;BME280;3227;42.654;23.360;2024-03-06T00:14:53;94179.75;;;8.18;91.72
6389;BME280;3227;42.654;23.360;2024-03-06T00:17:20;94179.81;;;8.32;90.52
6389;BME280;3227;42.654;23.360;2024-03-06T00:19:46;94172.22;;;8.46;89.92
6389;BME280;3227;42.654;23.360;2024-03-06T00:22:14;94156.03;;;8.45;89.01
6389;BME280;3227;42.654;23.360;2024-03-06T00:24:42;94182.47;;;8.70;87.58
6389;BME280;3227;42.654;23.360;2024-03-06T00:27:09;94183.31;;;8.75;87.34
6389;BME280;3227;42.654;23.360;2024-03-06T00:29:36;94175.66;;;8.70;87.23
6389;BME280;3227;42.654;23.360;2024-03-06T00:32:04;94178.19;;;8.75;87.15
6389;BME280;3227;42.654;23.360;2024-03-06T00:34:30;94184.16;;;8.74;87.10
6389;BME280;3227;42.654;23.360;2024-03-06T00:36:57;94185.03;;;8.76;87.01
6389;BME280;3227;42.654;23.360;2024-03-06T00:39:25;94183.28;;;8.66;87.89
6389;BME280;3227;42.654;23.360;2024-03-06T00:41:52;94175.63;;;8.57;88.21
6389;BME280;3227;42.654;23.360;2024-03-06T00:44:19;94179.88;;;8.46;88.40
6389;BME280;3227;42.654;23.360;2024-03-06T00:46:45;94155.09;;;8.19;89.22
6389;BME280;3227;42.654;23.360;2024-03-06T00:49:12;94180.72;;;8.38;88.84
6389;BME280;3227;42.654;23.360;2024-03-06T00:51:39;94179.84;;;8.41;89.10
6389;BME280;3227;42.654;23.360;2024-03-06T00:54:05;94173.03;;;8.35;89.04
6389;BME280;3227;42.654;23.360;2024-03-06T00:56:37;94175.59;;;8.45;88.93
6389;BME280;3227;42.654;23.360;2024-03-06T00:59:03;94183.25;;;8.42;89.19
6389;BME280;3227;42.654;23.360;2024-03-06T01:01:30;94184.09;;;8.42;88.89
6389;BME280;3227;42.654;23.360;2024-03-06T01:03:57;94181.56;;;8.37;88.60
6389;BME280;3227;42.654;23.360;2024-03-06T01:06:24;94183.25;;;8.42;88.68
6389;BME280;3227;42.654;23.360;2024-03-06T01:08:51;94191.75;;;8.34;88.57
6389;BME280;3227;42.654;23.360;2024-03-06T01:11:17;94184.13;;;8.39;88.28
6389;BME280;3227;42.654;23.360;2024-03-06T01:13:45;94196.84;;;8.40;88.41
6389;BME280;3227;42.654;23.360;2024-03-06T01:16:12;94190.91;;;8.38;88.28
6389;BME280;3227;42.654;23.360;2024-03-06T01:18:39;94198.56;;;8.43;87.64
6389;BME280;3227;42.654;23.360;2024-03-06T01:21:06;94201.97;;;8.37;87.77
6389;BME280;3227;42.654;23.360;2024-03-06T01:23:32;94201.97;;;8.36;88.53
6389;BME280;3227;42.654;23.360;2024-03-06T01:25:59;94189.19;;;8.33;88.10
6389;BME280;3227;42.654;23.360;2024-03-06T01:28:26;94190.91;;;8.31;88.21
6389;BME280;3227;42.654;23.360;2024-03-06T01:30:54;94193.44;;;8.31;88.33
6389;BME280;3227;42.654;23.360;2024-03-06T01:33:21;94186.66;;;8.31;88.29
6389;BME280;3227;42.654;23.360;2024-03-06T01:35:47;94190.88;;;8.32;88.21
6389;BME280;3227;42.654;23.360;2024-03-06T01:38:14;94184.88;;;8.24;88.49
6389;BME280;3227;42.654;23.360;2024-03-06T01:40:43;94163.56;;;8.04;88.43
6389;BME280;3227;42.654;23.360;2024-03-06T01:43:19;94190.81;;;8.25;88.17
6389;BME280;3227;42.654;23.360;2024-03-06T01:45:47;94184.88;;;8.24;87.46
6389;BME280;3227;42.654;23.360;2024-03-06T01:48:16;94196.78;;;8.24;87.38
6389;BME280;3227;42.654;23.360;2024-03-06T01:50:43;94197.66;;;8.23;87.94
6389;BME280;3227;42.654;23.360;2024-03-06T01:53:10;94192.53;;;8.23;87.95
6389;BME280;3227;42.654;23.360;2024-03-06T01:55:37;94189.13;;;8.22;87.43
6389;BME280;3227;42.654;23.360;2024-03-06T01:58:04;94189.13;;;8.21;87.56
6389;BME280;3227;42.654;23.360;2024-03-06T02:00:32;94149.91;;;7.94;87.89
6389;BME280;3227;42.654;23.360;2024-03-06T02:02:59;94156.75;;;8.03;88.32
6389;BME280;3227;42.654;23.360;2024-03-06T02:05:28;94187.41;;;8.17;88.76
6389;BME280;3227;42.654;23.360;2024-03-06T02:07:57;94190.81;;;8.17;88.75
6389;BME280;3227;42.654;23.360;2024-03-06T02:10:24;94194.22;;;8.18;88.76
6389;BME280;3227;42.654;23.360;2024-03-06T02:12:52;94200.19;;;8.15;88.30
6389;BME280;3227;42.654;23.360;2024-03-06T02:15:19;94199.28;;;8.09;87.76
6389;BME280;3227;42.654;23.360;2024-03-06T02:17:46;94201.81;;;8.04;87.49
6389;BME280;3227;42.654;23.360;2024-03-06T02:20:12;94174.53;;;7.82;87.83
6389;BME280;3227;42.654;23.360;2024-03-06T02:22:42;94185.50;;;7.75;88.49
6389;BME280;3227;42.654;23.360;2024-03-06T02:25:09;94169.31;;;7.60;89.44
6389;BME280;3227;42.654;23.360;2024-03-06T02:27:37;94205.00;;;7.57;90.42
6389;BME280;3227;42.654;23.360;2024-03-06T02:30:05;94206.69;;;7.55;90.98
6389;BME280;3227;42.654;23.360;2024-03-06T02:32:31;94215.09;;;7.45;91.43
6389;BME280;3227;42.654;23.360;2024-03-06T02:35:00;94218.47;;;7.38;91.77
6389;BME280;3227;42.654;23.360;2024-03-06T02:37:28;94217.56;;;7.35;91.62
6389;BME280;3227;42.654;23.360;2024-03-06T02:39:56;94216.31;;;6.82;93.50
6389;BME280;3227;42.654;23.360;2024-03-06T02:42:22;94212.88;;;6.77;94.42
6389;BME280;3227;42.654;23.360;2024-03-06T02:44:49;94216.84;;;6.51;95.94
6389;BME280;3227;42.654;23.360;2024-03-06T02:47:16;94221.34;;;5.96;98.93
6389;BME280;3227;42.654;23.360;2024-03-06T02:49:42;94216.25;;;5.96;99.96
6389;BME280;3227;42.654;23.360;2024-03-06T02:52:09;94220.56;;;6.00;100.00
6389;BME280;3227;42.654;23.360;2024-03-06T02:54:36;94217.34;;;6.18;98.48
6389;BME280;3227;42.654;23.360;2024-03-06T02:57:04;94216.25;;;5.96;99.20
6389;BME280;3227;42.654;23.360;2024-03-06T02:59:30;94216.06;;;5.84;99.47
6389;BME280;3227;42.654;23.360;2024-03-06T03:01:57;94217.00;;;5.89;99.58
6389;BME280;3227;42.654;23.360;2024-03-06T03:04:24;94217.97;;;5.99;99.22
6389;BME280;3227;42.654;23.360;2024-03-06T03:06:51;94221.69;;;6.25;98.24
6389;BME280;3227;42.654;23.360;2024-03-06T03:09:18;94223.66;;;6.52;96.37
6389;BME280;3227;42.654;23.360;2024-03-06T03:11:46;94225.53;;;6.67;94.55
6389;BME280;3227;42.654;23.360;2024-03-06T03:14:14;94228.13;;;6.74;93.37
6389;BME280;3227;42.654;23.360;2024-03-06T03:16:41;94224.84;;;6.87;92.62
6389;BME280;3227;42.654;23.360;2024-03-06T03:19:08;94222.38;;;6.95;91.55
6389;BME280;3227;42.654;23.360;2024-03-06T03:21:35;94233.44;;;6.99;91.06
6389;BME280;3227;42.654;23.360;2024-03-06T03:24:01;94237.72;;;7.03;90.85
6389;BME280;3227;42.654;23.360;2024-03-06T03:26:28;94238.59;;;7.09;90.30
6389;BME280;3227;42.654;23.360;2024-03-06T03:28:55;94228.44;;;7.11;89.92
6389;BME280;3227;42.654;23.360;2024-03-06T03:31:23;94234.38;;;7.10;90.14
6389;BME280;3227;42.654;23.360;2024-03-06T03:33:50;94227.59;;;7.12;89.65
6389;BME280;3227;42.654;23.360;2024-03-06T03:36:16;94240.38;;;7.18;89.55
6389;BME280;3227;42.654;23.360;2024-03-06T03:38:43;94211.38;;;7.02;88.96
6389;BME280;3227;42.654;23.360;2024-03-06T03:41:10;94243.84;;;7.24;89.06
6389;BME280;3227;42.654;23.360;2024-03-06T03:43:42;94238.69;;;7.20;88.58
6389;BME280;3227;42.654;23.360;2024-03-06T03:46:09;94242.13;;;7.22;88.31
6389;BME280;3227;42.654;23.360;2024-03-06T03:48:37;94242.09;;;7.20;88.47
6389;BME280;3227;42.654;23.360;2024-03-06T03:51:04;94199.41;;;6.91;88.14
6389;BME280;3227;42.654;23.360;2024-03-06T03:53:32;94246.31;;;7.18;87.94
6389;BME280;3227;42.654;23.360;2024-03-06T03:55:59;94248.06;;;7.21;88.45
6389;BME280;3227;42.654;23.360;2024-03-06T03:58:26;94221.56;;;7.01;88.16
6389;BME280;3227;42.654;23.360;2024-03-06T04:00:52;94221.56;;;7.01;88.44
6389;BME280;3227;42.654;23.360;2024-03-06T04:03:20;94182.34;;;6.80;87.81
6389;BME280;3227;42.654;23.360;2024-03-06T04:05:48;94247.22;;;7.22;88.01
6389;BME280;3227;42.654;23.360;2024-03-06T04:08:15;94251.44;;;7.20;88.07
6389;BME280;3227;42.654;23.360;2024-03-06T04:10:41;94252.28;;;7.19;87.52
6389;BME280;3227;42.654;23.360;2024-03-06T04:13:10;94255.66;;;7.15;87.71
6389;BME280;3227;42.654;23.360;2024-03-06T04:15:37;94250.50;;;7.09;87.78
6389;BME280;3227;42.654;23.360;2024-03-06T04:18:04;94264.94;;;7.07;87.77
6389;BME280;3227;42.654;23.360;2024-03-06T04:20:31;94272.53;;;7.04;87.67
6389;BME280;3227;42.654;23.360;2024-03-06T04:22:59;94238.22;;;6.68;87.67
6389;BME280;3227;42.654;23.360;2024-03-06T04:25:25;94275.75;;;6.84;87.89
6389;BME280;3227;42.654;23.360;2024-03-06T04:27:52;94278.19;;;6.75;88.63
6389;BME280;3227;42.654;23.360;2024-03-06T04:30:19;94282.41;;;6.70;89.75
6389;BME280;3227;42.654;23.360;2024-03-06T04:32:46;94247.28;;;6.39;90.48
6389;BME280;3227;42.654;23.360;2024-03-06T04:35:13;94237.88;;;6.32;90.11
6389;BME280;3227;42.654;23.360;2024-03-06T04:37:40;94272.94;;;6.59;90.67
6389;BME280;3227;42.654;23.360;2024-03-06T04:40:09;94266.13;;;6.59;91.07
6389;BME280;3227;42.654;23.360;2024-03-06T04:42:36;94281.59;;;6.74;90.99
6389;BME280;3227;42.654;23.360;2024-03-06T04:45:03;94267.16;;;6.76;90.05
6389;BME280;3227;42.654;23.360;2024-03-06T04:47:29;94274.06;;;6.83;88.91
6389;BME280;3227;42.654;23.360;2024-03-06T04:49:56;94288.47;;;6.84;89.37
6389;BME280;3227;42.654;23.360;2024-03-06T04:52:24;94245.75;;;6.55;89.31
6389;BME280;3227;42.654;23.360;2024-03-06T04:54:51;94293.50;;;6.78;89.45
6389;BME280;3227;42.654;23.360;2024-03-06T04:57:19;94292.69;;;6.79;89.37
6389;BME280;3227;42.654;23.360;2024-03-06T04:59:45;94191.09;;;6.21;88.77
6389;BME280;3227;42.654;23.360;2024-03-06T05:02:12;94297.81;;;6.82;88.55
6389;BME280;3227;42.654;23.360;2024-03-06T05:04:39;94296.13;;;6.84;88.98
6389;BME280;3227;42.654;23.360;2024-03-06T05:07:05;94305.47;;;6.85;89.13
6389;BME280;3227;42.654;23.360;2024-03-06T05:09:32;94302.06;;;6.85;89.10
6389;BME280;3227;42.654;23.360;2024-03-06T05:12:00;94298.72;;;6.92;88.51
6389;BME280;3227;42.654;23.360;2024-03-06T05:14:28;94298.00;;;7.04;87.42
6389;BME280;3227;42.654;23.360;2024-03-06T05:16:55;94304.91;;;7.17;87.45
6389;BME280;3227;42.654;23.360;2024-03-06T05:19:21;94304.19;;;7.30;86.66
6389;BME280;3227;42.654;23.360;2024-03-06T05:21:48;94301.72;;;7.42;86.15
6389;BME280;3227;42.654;23.360;2024-03-06T05:24:15;94308.69;;;7.61;86.12
6389;BME280;3227;42.654;23.360;2024-03-06T05:26:41;94298.63;;;7.83;85.68
6389;BME280;3227;42.654;23.360;2024-03-06T05:29:08;94298.84;;;8.13;84.93
6389;BME280;3227;42.654;23.360;2024-03-06T05:31:37;94304.06;;;8.31;83.47
6389;BME280;3227;42.654;23.360;2024-03-06T05:34:03;94316.94;;;8.60;82.29
6389;BME280;3227;42.654;23.360;2024-03-06T05:36:30;94242.84;;;8.39;79.82
6389;BME280;3227;42.654;23.360;2024-03-06T05:38:57;94323.88;;;8.93;78.23
6389;BME280;3227;42.654;23.360;2024-03-06T05:41:24;94300.81;;;8.76;77.06
6389;BME280;3227;42.654;23.360;2024-03-06T05:43:50;94333.25;;;8.96;77.32
6389;BME280;3227;42.654;23.360;2024-03-06T05:46:17;94328.97;;;8.98;76.80
6389;BME280;3227;42.654;23.360;2024-03-06T05:48:46;94329.81;;;8.92;77.29
6389;BME280;3227;42.654;23.360;2024-03-06T05:51:13;94331.53;;;8.99;77.56
6389;BME280;3227;42.654;23.360;2024-03-06T05:53:39;94334.97;;;9.07;78.05
6389;BME280;3227;42.654;23.360;2024-03-06T05:56:08;94272.72;;;8.76;77.69
6389;BME280;3227;42.654;23.360;2024-03-06T05:58:34;94341.78;;;9.14;78.21
6389;BME280;3227;42.654;23.360;2024-03-06T06:01:01;94336.69;;;9.08;78.49
6389;BME280;3227;42.654;23.360;2024-03-06T06:03:28;94335.84;;;9.09;78.97
6389;BME280;3227;42.654;23.360;2024-03-06T06:05:57;94335.00;;;9.16;79.38
6389;BME280;3227;42.654;23.360;2024-03-06T06:08:24;94243.75;;;8.61;78.46
6389;BME280;3227;42.654;23.360;2024-03-06T06:10:51;94340.94;;;9.09;78.57
6389;BME280;3227;42.654;23.360;2024-03-06T06:13:18;94336.59;;;8.84;79.87
6389;BME280;3227;42.654;23.360;2024-03-06T06:15:45;94328.88;;;8.66;80.55
6389;BME280;3227;42.654;23.360;2024-03-06T06:18:11;94345.09;;;8.77;80.96
6389;BME280;3227;42.654;23.360;2024-03-06T06:20:41;94346.78;;;8.75;81.34
6389;BME280;3227;42.654;23.360;2024-03-06T06:23:09;94353.56;;;8.62;82.07
6389;BME280;3227;42.654;23.360;2024-03-06T06:25:36;94341.38;;;8.17;84.00
6389;BME280;3227;42.654;23.360;2024-03-06T06:28:03;94331.28;;;8.31;83.65
6389;BME280;3227;42.654;23.360;2024-03-06T06:30:29;94345.91;;;8.65;82.86
6389;BME280;3227;42.654;23.360;2024-03-06T06:32:56;94343.44;;;8.85;82.62
6389;BME280;3227;42.654;23.360;2024-03-06T06:35:23;94343.31;;;8.58;82.84
6389;BME280;3227;42.654;23.360;2024-03-06T06:37:50;94316.94;;;8.56;82.28
6389;BME280;3227;42.654;23.360;2024-03-06T06:40:18;94341.81;;;9.05;82.31
6389;BME280;3227;42.654;23.360;2024-03-06T06:42:48;94335.88;;;9.35;80.22
6389;BME280;3227;42.654;23.360;2024-03-06T06:45:16;94331.63;;;9.48;79.04
6389;BME280;3227;42.654;23.360;2024-03-06T06:47:43;94332.47;;;9.65;78.38
6389;BME280;3227;42.654;23.360;2024-03-06T06:50:10;94341.84;;;9.48;78.09
6389;BME280;3227;42.654;23.360;2024-03-06T06:52:37;94357.22;;;9.54;79.25
6389;BME280;3227;42.654;23.360;2024-03-06T06:55:04;94343.53;;;9.31;79.88
6389;BME280;3227;42.654;23.360;2024-03-06T06:57:33;94348.69;;;9.43;79.33
6389;BME280;3227;42.654;23.360;2024-03-06T07:00:00;94358.06;;;9.64;78.20
6389;BME280;3227;42.654;23.360;2024-03-06T07:02:27;94347.84;;;9.54;78.69
6389;BME280;3227;42.654;23.360;2024-03-06T07:04:54;94352.09;;;9.90;77.99
6389;BME280;3227;42.654;23.360;2024-03-06T07:07:21;94347.84;;;10.18;76.76
6389;BME280;3227;42.654;23.360;2024-03-06T07:09:48;94317.13;;;10.12;75.67
6389;BME280;3227;42.654;23.360;2024-03-06T07:12:15;94355.44;;;10.47;74.37
6389;BME280;3227;42.654;23.360;2024-03-06T07:14:43;94327.28;;;10.53;74.52
6389;BME280;3227;42.654;23.360;2024-03-06T07:17:10;94355.50;;;10.08;74.91
6389;BME280;3227;42.654;23.360;2024-03-06T07:19:36;94351.22;;;10.39;74.90
6389;BME280;3227;42.654;23.360;2024-03-06T07:22:04;94352.03;;;10.47;73.92
6389;BME280;3227;42.654;23.360;2024-03-06T07:24:31;94342.69;;;10.37;74.14
6389;BME280;3227;42.654;23.360;2024-03-06T07:26:59;94293.22;;;10.01;74.08
6389;BME280;3227;42.654;23.360;2024-03-06T07:29:26;94353.78;;;10.07;75.82
6389;BME280;3227;42.654;23.360;2024-03-06T07:31:55;94288.94;;;10.05;74.70
6389;BME280;3227;42.654;23.360;2024-03-06T07:34:21;94346.91;;;10.47;73.84
6389;BME280;3227;42.654;23.360;2024-03-06T07:36:48;94352.81;;;10.72;74.55
6389;BME280;3227;42.654;23.360;2024-03-06T07:39:15;94352.75;;;10.94;73.30
6389;BME280;3227;42.654;23.360;2024-03-06T07:41:42;94352.94;;;10.23;75.29
6389;BME280;3227;42.654;23.360;2024-03-06T07:44:09;94328.94;;;10.66;74.50
6389;BME280;3227;42.654;23.360;2024-03-06T07:46:36;94344.09;;;11.18;72.27
6389;BME280;3227;42.654;23.360;2024-03-06T07:49:04;94351.63;;;11.39;70.31
6389;BME280;3227;42.654;23.360;2024-03-06T07:51:31;94356.84;;;11.27;69.70
6389;BME280;3227;42.654;23.360;2024-03-06T07:53:58;94356.72;;;11.49;70.06
6389;BME280;3227;42.654;23.360;2024-03-06T07:56:25;94348.78;;;11.85;69.95
6389;BME280;3227;42.654;23.360;2024-03-06T07:58:52;94350.75;;;11.45;69.54
6389;BME280;3227;42.654;23.360;2024-03-06T08:01:20;94351.84;;;11.03;71.07
6389;BME280;3227;42.654;23.360;2024-03-06T08:03:47;94347.25;;;11.54;70.59
6389;BME280;3227;42.654;23.360;2024-03-06T08:06:15;94354.94;;;11.58;69.77
6389;BME280;3227;42.654;23.360;2024-03-06T08:08:42;94358.72;;;10.95;71.28
6389;BME280;3227;42.654;23.360;2024-03-06T08:11:10;94356.16;;;10.92;72.26
6389;BME280;3227;42.654;23.360;2024-03-06T08:13:37;94342.66;;;10.47;73.91
6389;BME280;3227;42.654;23.360;2024-03-06T08:16:04;94352.81;;;10.75;73.41
6389;BME280;3227;42.654;23.360;2024-03-06T08:18:32;94333.16;;;10.75;73.64
6389;BME280;3227;42.654;23.360;2024-03-06T08:21:00;94327.34;;;10.21;75.43
6389;BME280;3227;42.654;23.360;2024-03-06T08:23:29;94337.53;;;10.38;76.04
6389;BME280;3227;42.654;23.360;2024-03-06T08:25:56;94357.06;;;10.83;74.47
6389;BME280;3227;42.654;23.360;2024-03-06T08:28:22;94350.03;;;11.23;72.36
6389;BME280;3227;42.654;23.360;2024-03-06T08:30:49;94349.91;;;11.41;71.79
6389;BME280;3227;42.654;23.360;2024-03-06T08:33:17;94351.41;;;11.70;71.05
6389;BME280;3227;42.654;23.360;2024-03-06T08:35:46;94349.38;;;12.17;70.67
6389;BME280;3227;42.654;23.360;2024-03-06T08:38:13;94265.75;;;11.89;68.23
6389;BME280;3227;42.654;23.360;2024-03-06T08:40:41;94346.88;;;12.08;68.01
6389;BME280;3227;42.654;23.360;2024-03-06T08:43:11;94345.75;;;12.37;67.81
6389;BME280;3227;42.654;23.360;2024-03-06T08:45:38;94345.63;;;12.49;67.27
6389;BME280;3227;42.654;23.360;2024-03-06T08:48:05;94321.59;;;12.53;66.97
6389;BME280;3227;42.654;23.360;2024-03-06T08:50:32;94317.25;;;12.60;64.85
6389;BME280;3227;42.654;23.360;2024-03-06T08:52:58;94350.09;;;13.07;66.86
6389;BME280;3227;42.654;23.360;2024-03-06T08:55:26;94350.88;;;13.12;65.53
6389;BME280;3227;42.654;23.360;2024-03-06T08:57:55;94354.31;;;13.17;67.73
6389;BME280;3227;42.654;23.360;2024-03-06T09:00:21;94354.75;;;13.46;68.30
6389;BME280;3227;42.654;23.360;2024-03-06T09:02:48;94349.97;;;13.79;67.13
6389;BME280;3227;42.654;23.360;2024-03-06T09:05:15;94348.00;;;13.94;61.76
6389;BME280;3227;42.654;23.360;2024-03-06T09:07:42;94351.81;;;13.08;63.80
6389;BME280;3227;42.654;23.360;2024-03-06T09:10:09;94351.69;;;13.20;65.70
6389;BME280;3227;42.654;23.360;2024-03-06T09:12:36;94279.16;;;12.18;66.13
6389;BME280;3227;42.654;23.360;2024-03-06T09:15:05;94347.97;;;12.70;67.17
6389;BME280;3227;42.654;23.360;2024-03-06T09:17:34;94351.72;;;13.17;68.42
6389;BME280;3227;42.654;23.360;2024-03-06T09:20:01;94339.91;;;13.63;67.32
6389;BME280;3227;42.654;23.360;2024-03-06T09:22:35;94344.78;;;13.83;62.48
6389;BME280;3227;42.654;23.360;2024-03-06T09:25:03;94294.25;;;13.18;61.82
6389;BME280;3227;42.654;23.360;2024-03-06T09:27:30;94239.53;;;13.04;62.33
6389;BME280;3227;42.654;23.360;2024-03-06T09:29:57;94356.09;;;13.71;61.70
6389;BME280;3227;42.654;23.360;2024-03-06T09:32:25;94350.16;;;13.02;64.42
6389;BME280;3227;42.654;23.360;2024-03-06T09:34:52;94344.03;;;13.12;65.45
6389;BME280;3227;42.654;23.360;2024-03-06T09:37:18;94335.78;;;13.53;65.30
6389;BME280;3227;42.654;23.360;2024-03-06T09:39:45;94341.97;;;13.97;65.22
6389;BME280;3227;42.654;23.360;2024-03-06T09:42:13;94345.84;;;14.24;63.03
6389;BME280;3227;42.654;23.360;2024-03-06T09:44:40;94340.69;;;14.22;60.22
6389;BME280;3227;42.654;23.360;2024-03-06T09:47:08;94344.22;;;14.17;59.30
6389;BME280;3227;42.654;23.360;2024-03-06T09:49:40;94333.00;;;14.19;61.35
6389;BME280;3227;42.654;23.360;2024-03-06T09:52:08;94293.66;;;14.09;59.54
6389;BME280;3227;42.654;23.360;2024-03-06T09:54:35;94338.00;;;14.28;58.34
6389;BME280;3227;42.654;23.360;2024-03-06T09:57:04;94324.09;;;14.40;60.83
6389;BME280;3227;42.654;23.360;2024-03-06T09:59:31;94332.16;;;14.68;57.05
6389;BME280;3227;42.654;23.360;2024-03-06T10:01:58;94335.81;;;15.01;58.70
6389;BME280;3227;42.654;23.360;2024-03-06T10:04:28;94293.56;;;15.06;56.23
6389;BME280;3227;42.654;23.360;2024-03-06T10:06:57;94320.03;;;15.56;56.43
6389;BME280;3227;42.654;23.360;2024-03-06T10:09:25;94266.22;;;15.36;52.65
6389;BME280;3227;42.654;23.360;2024-03-06T10:11:52;94301.72;;;15.27;52.92
6389;BME280;3227;42.654;23.360;2024-03-06T10:14:21;94316.63;;;15.14;53.92
6389;BME280;3227;42.654;23.360;2024-03-06T10:16:53;94316.09;;;14.98;54.69
6389;BME280;3227;42.654;23.360;2024-03-06T10:19:22;94298.53;;;14.74;54.52
6389;BME280;3227;42.654;23.360;2024-03-06T10:21:50;94272.03;;;14.66;55.33
6389;BME280;3227;42.654;23.360;2024-03-06T10:24:19;94318.94;;;14.84;53.61
6389;BME280;3227;42.654;23.360;2024-03-06T10:26:49;94309.66;;;14.76;53.13
6389;BME280;3227;42.654;23.360;2024-03-06T10:29:16;94312.94;;;14.82;54.13
6389;BME280;3227;42.654;23.360;2024-03-06T10:31:48;94254.72;;;14.72;54.66
6389;BME280;3227;42.654;23.360;2024-03-06T10:34:30;94299.31;;;15.17;53.93
6389;BME280;3227;42.654;23.360;2024-03-06T10:36:58;94299.13;;;15.27;52.66
6389;BME280;3227;42.654;23.360;2024-03-06T10:39:27;94277.81;;;15.18;52.73
6389;BME280;3227;42.654;23.360;2024-03-06T10:41:55;94275.16;;;15.21;51.90
6389;BME280;3227;42.654;23.360;2024-03-06T10:44:24;94287.44;;;15.49;52.07
6389;BME280;3227;42.654;23.360;2024-03-06T10:46:55;94282.53;;;15.77;54.17
6389;BME280;3227;42.654;23.360;2024-03-06T10:49:26;94253.97;;;15.81;50.92
6389;BME280;3227;42.654;23.360;2024-03-06T10:51:54;94273.50;;;15.93;50.45
6389;BME280;3227;42.654;23.360;2024-03-06T10:54:28;94253.97;;;15.81;50.33
6389;BME280;3227;42.654;23.360;2024-03-06T10:56:56;94276.38;;;15.44;49.03
6389;BME280;3227;42.654;23.360;2024-03-06T10:59:25;94265.69;;;14.37;51.09
6389;BME280;3227;42.654;23.360;2024-03-06T11:01:53;94269.38;;;14.69;50.95
6389;BME280;3227;42.654;23.360;2024-03-06T11:04:23;94262.88;;;14.50;50.99
6389;BME280;3227;42.654;23.360;2024-03-06T11:06:50;94260.53;;;14.39;50.77
6389;BME280;3227;42.654;23.360;2024-03-06T11:09:17;94254.00;;;14.66;51.49
6389;BME280;3227;42.654;23.360;2024-03-06T11:11:51;94246.34;;;15.01;49.99
6389;BME280;3227;42.654;23.360;2024-03-06T11:14:21;94239.91;;;15.20;49.05
6389;BME280;3227;42.654;23.360;2024-03-06T11:17:01;94174.09;;;15.01;49.82
6389;BME280;3227;42.654;23.360;2024-03-06T11:19:29;94230.72;;;15.46;48.41
6389;BME280;3227;42.654;23.360;2024-03-06T11:21:56;94227.81;;;15.61;51.71
6389;BME280;3227;42.654;23.360;2024-03-06T11:24:24;94214.75;;;15.99;49.88
6389;BME280;3227;42.654;23.360;2024-03-06T11:27:00;94221.13;;;16.20;46.83
6389;BME280;3227;42.654;23.360;2024-03-06T11:29:28;94218.63;;;15.48;47.83
6389;BME280;3227;42.654;23.360;2024-03-06T11:32:07;94226.03;;;15.24;48.06
6389;BME280;3227;42.654;23.360;2024-03-06T11:34:35;94221.50;;;14.97;48.27
6389;BME280;3227;42.654;23.360;2024-03-06T11:37:04;94214.47;;;14.65;49.20
6389;BME280;3227;42.654;23.360;2024-03-06T11:39:33;94164.44;;;13.86;49.91
6389;BME280;3227;42.654;23.360;2024-03-06T11:42:03;94209.53;;;14.53;50.37
6389;BME280;3227;42.654;23.360;2024-03-06T11:44:34;94209.34;;;15.02;48.72
6389;BME280;3227;42.654;23.360;2024-03-06T11:47:02;94186.03;;;15.07;46.71
6389;BME280;3227;42.654;23.360;2024-03-06T11:49:30;94199.94;;;15.37;47.44
6389;BME280;3227;42.654;23.360;2024-03-06T11:52:00;94206.06;;;15.33;46.94
6389;BME280;3227;42.654;23.360;2024-03-06T11:54:30;94202.13;;;15.16;47.14
6389;BME280;3227;42.654;23.360;2024-03-06T11:56:58;94196.19;;;15.14;47.45
6389;BME280;3227;42.654;23.360;2024-03-06T11:59:27;94191.16;;;15.45;47.28
6389;BME280;3227;42.654;23.360;2024-03-06T12:01:55;94197.13;;;15.47;46.57
6389;BME280;3227;42.654;23.360;2024-03-06T12:04:22;94123.72;;;14.87;45.76
6389;BME280;3227;42.654;23.360;2024-03-06T12:06:50;94180.25;;;15.33;46.32
6389;BME280;3227;42.654;23.360;2024-03-06T12:09:18;94191.38;;;15.35;46.02
6389;BME280;3227;42.654;23.360;2024-03-06T12:11:44;94181.13;;;14.95;46.57
6389;BME280;3227;42.654;23.360;2024-03-06T12:14:16;93890.41;;;13.16;47.43
6389;BME280;3227;42.654;23.360;2024-03-06T12:16:54;94184.84;;;15.21;46.05
6389;BME280;3227;42.654;23.360;2024-03-06T12:19:21;94187.97;;;14.97;46.60
6389;BME280;3227;42.654;23.360;2024-03-06T12:21:48;94184.75;;;14.88;46.15
6389;BME280;3227;42.654;23.360;2024-03-06T12:24:16;94170.91;;;14.52;47.05
6389;BME280;3227;42.654;23.360;2024-03-06T12:26:44;94146.16;;;14.43;47.09
6389;BME280;3227;42.654;23.360;2024-03-06T12:29:11;94174.66;;;14.77;46.16
6389;BME280;3227;42.654;23.360;2024-03-06T12:31:39;94152.16;;;14.43;46.77
6389;BME280;3227;42.654;23.360;2024-03-06T12:34:07;94169.19;;;14.51;47.07
6389;BME280;3227;42.654;23.360;2024-03-06T12:36:34;94153.00;;;14.84;46.57
6389;BME280;3227;42.654;23.360;2024-03-06T12:39:02;94169.56;;;15.12;45.99
6389;BME280;3227;42.654;23.360;2024-03-06T12:41:36;94173.56;;;14.87;45.40
6389;BME280;3227;42.654;23.360;2024-03-06T12:44:03;94172.06;;;14.77;46.65
6389;BME280;3227;42.654;23.360;2024-03-06T12:46:32;94176.75;;;14.58;46.82
6389;BME280;3227;42.654;23.360;2024-03-06T12:48:59;94119.63;;;13.95;51.61
6389;BME280;3227;42.654;23.360;2024-03-06T12:51:27;94169.59;;;13.86;55.35
6389;BME280;3227;42.654;23.360;2024-03-06T12:53:53;94180.44;;;13.56;58.48
6389;BME280;3227;42.654;23.360;2024-03-06T12:56:20;94170.38;;;13.42;59.73
6389;BME280;3227;42.654;23.360;2024-03-06T12:58:47;94156.38;;;13.05;60.01
6389;BME280;3227;42.654;23.360;2024-03-06T13:01:14;94182.09;;;13.05;61.51
6389;BME280;3227;42.654;23.360;2024-03-06T13:03:40;94173.47;;;13.09;61.02
6389;BME280;3227;42.654;23.360;2024-03-06T13:06:07;94172.88;;;12.91;62.13
6389;BME280;3227;42.654;23.360;2024-03-06T13:08:35;94175.97;;;13.15;61.25
6389;BME280;3227;42.654;23.360;2024-03-06T13:11:02;94166.44;;;13.21;60.83
6389;BME280;3227;42.654;23.360;2024-03-06T13:13:29;94175.97;;;13.12;60.98
6389;BME280;3227;42.654;23.360;2024-03-06T13:15:58;94171.84;;;13.02;61.15
6389;BME280;3227;42.654;23.360;2024-03-06T13:18:26;94171.69;;;13.11;61.15